WABB/BIK METAR and TAF weather

Enter ICAO airport designator
Station Type Date Time Source
WABB METAR 2019/02/16 05:00 UTC NOAA

WABB 160500Z 28005KT 4000 -SHRA FEW017CB SCT018 26/25 Q1010


Station Type Date Time Source
WABB Decoded METAR 2019/02/16 05:00 UTC NOAA

Biak / Mokmer, Indonesia (WABB) 01-11S 136-07E 11M
Feb 16, 2019 - 12:00 AM EST / 2019.02.16 0500 UTC
Wind: from the W (280 degrees) at 6 MPH (5 KT):0
Visibility: 2 mile(s):0
Sky conditions: partly cloudy
Weather: light rain showers; Cumulonimbus clouds observed
Temperature: 78 F (26 C)
Dew Point: 77 F (25 C)
Relative Humidity: 94%
Pressure (altimeter): 29.83 in. Hg (1010 hPa)
ob: WABB 160500Z 28005KT 4000 -SHRA FEW017CB SCT018 26/25 Q1010
cycle: 5

Station Type Date Time Source
WABB TAF 2019/02/16 06:06 UTC NOAA

TAF TAF WABB 160500Z 1606/1712 32004KT 9999 SCT018
TEMPO 1606/1609 5000 RA FEW017CB
BECMG 1610/1612 00000KT


Example: see airport list